ADDS METAR Data INFO
IDs: Format: Raw Decoded Include TAF

Data at: 0126 UTC 20 Feb 2018

KADS 192352Z 16012G22KT 10SM SCT043 OVC048 24/17 A2979
KADS 192247Z 16012G20KT 10SM SCT043 OVC048 24/16 A2979
KADS 192147Z 16010G20KT 10SM SCT041 BKN050 OVC055 24/16 A2979
KADS 192047Z 17014G20KT 13SM OVC043 24/16 A2980
KADS 191947Z 18015G28KT 13SM BKN025 OVC032 23/17 A2983
KADS 191848Z 19013G21KT 13SM BKN025 OVC032 23/17 A2984
KADS 191747Z 19013G21KT 13SM BKN029 OVC035 23/17 A2986
KADS 191658Z COR 16010G29KT 13SM SCT024 BKN036 OVC050 22/18 A2987
KADS 191647Z 16010G29KT 13SM SCT024 BKN036 OVC0050 22/18 A2986
KADS 191547Z 17014G27KT 13SM BKN020 OVC026 21/18 A2986
KADS 191447Z 16013G29KT 13SM OVC020 21/17 A2985
KADS 191348Z 16016G30KT 13SM OVC016 20/17 A2984
KADS 191247Z 16017G23KT 13SM OVC016 20/17 A2983
KADS 191147Z 16018G27KT 13SM OVC016 20/17 A2984
KADS 191035Z AUTO 17014G21KT 10SM OVC018 19/17 A2988 RMK AO2 T01920166
KADS 191015Z AUTO 17014G20KT 10SM OVC016 19/17 A2987 RMK AO2 T01910165
KADS 190955Z AUTO 17016G24KT 10SM OVC016 19/17 A2988 RMK AO2 T01910165
KADS 190935Z AUTO 17015G24KT 10SM OVC018 19/16 A2988 RMK AO2 LTG DSNT E T01900164
KADS 190915Z AUTO 17015G23KT 10SM OVC018 19/16 A2987 RMK AO2 T01890162
KADS 190855Z AUTO 16015G24KT 10SM OVC016 19/16 A2988 RMK AO2 T01880160
KADS 190835Z AUTO 17016G21KT 10SM OVC016 19/16 A2988 RMK AO2 T01870160
KADS 190815Z AUTO 18012G21KT 10SM OVC016 19/16 A2988 RMK AO2 T01850160
KADS 190755Z AUTO 17015G20KT 10SM OVC016 18/16 A2987 RMK AO2 T01800158
KADS 190735Z AUTO 16015G19KT 10SM OVC018 18/16 A2988 RMK AO2 T01760158
KADS 190715Z AUTO 17012G18KT 10SM SCT020 18/16 A2988 RMK AO2 T01760156
KADS 190655Z AUTO 17014G19KT 10SM CLR 18/16 A2987 RMK AO2 T01760156
KADS 190635Z AUTO 17014G21KT 10SM CLR 18/16 A2988 RMK AO2 LTG DSNT SE T01760156
KADS 190615Z AUTO 16014G21KT 10SM CLR 18/16 A2989 RMK AO2 LTG DSNT SE T01750157
KADS 190555Z AUTO 17012G15KT 10SM CLR 17/16 A2989 RMK AO2 LTG DSNT SE T01720159 10172 20156 401720075
KADS 190535Z AUTO 16011G15KT 10SM CLR 17/16 A2989 RMK AO2 LTG DSNT S T01720159
KADS 190515Z AUTO 17010G14KT 7SM CLR 17/16 A2990 RMK AO2 LTG DSNT SE T01660158
KADS 190455Z AUTO 16008KT 7SM SCT005 BKN060 16/16 A2991 RMK AO2 LTG DSNT S T01620156
KADS 190435Z AUTO 14004KT 5SM BR BKN005 BKN060 16/16 A2991 RMK AO2 T01610155
KADS 190415Z AUTO 16004KT 5SM BR OVC003 16/16 A2991 RMK AO2 T01620156
KADS 190355Z AUTO 13007KT 4SM BR OVC003 16/16 A2991 RMK AO2 T01620158
KADS 190347Z 12007KT 2SM BR OVC002 16/16 A2990
KADS 190335Z AUTO 14005KT 3SM BR OVC003 16/16 A2991 RMK AO2 T01600157
KADS 190315Z AUTO 15007KT 1 3/4SM BR OVC003 16/16 A2991 RMK AO2 T01590155
KADS 190252Z 16009KT 2SM BR OVC002 16/15 A2991
KADS 190147Z 16009KT 3SM BR OVC005 16/16 A2992
KADS 190048Z 16008KT 5SM BR OVC005 16/15 A2992
KADS 182347Z 16012G18KT 6SM BR OVC007 16/14 A2991
KADS 182257Z 17009KT 6SM BR OVC009 16/14 A2991
KADS 182158Z 17009KT 6SM BR OVC011 16/13 A2991
KADS 182058Z 14012G19KT 3SM BR OVC004 14/13 A2989
KADS 181948Z 14012G19KT 4SM BR OVC004 12/10 A2997
KADS 181854Z 13007KT 2SM -RABR OVC004 11/10 A3001
KADS 181753Z 13007KT 3SM BR OVC004 11/10 A3011
KADS 181647Z 12006KT 1SM BR OVC003 10/09 A3012
KADS 181547Z 12007KT 1SM BR OVC002 09/09 A3014
KADS 181447Z 12006KT 1SM BR OVC003 09/08 A3015
KADS 181347Z 13007KT 3SM OVC004 08/07 A3014